Time;durP1;ratioP1;P1;durP2;ratioP2;P2;SDS_P1;SDS_P2;PMS_P1;PMS_P2;Temp;Humidity;BMP_temperature;BMP_pressure;BME280_temperature;BME280_humidity;BME280_pressure;Samples;Min_cycle;Max_cycle;Signal;HPM_P1;HPM_P2
2022/09/07 00:00:28;;;;;;;2.50;2.00;;;;;;;20.74;67.88;99252.38;4981693;28;20198;-80
2022/09/07 00:02:54;;;;;;;4.27;2.50;;;;;;;20.68;68.09;99258.38;4980326;28;20220;-79
2022/09/07 00:05:19;;;;;;;3.43;2.03;;;;;;;20.61;68.21;99254.75;4966176;28;20241;-80
2022/09/07 00:07:45;;;;;;;3.23;2.20;;;;;;;20.57;68.45;99250.75;4984043;28;20576;-80
2022/09/07 00:10:10;;;;;;;3.17;2.87;;;;;;;20.54;68.51;99252.75;4985864;28;20197;-79
2022/09/07 00:12:36;;;;;;;5.73;2.40;;;;;;;20.54;68.51;99242.06;4982548;28;20765;-79
2022/09/07 00:15:03;;;;;;;4.60;2.03;;;;;;;20.53;68.59;99244.91;4985065;28;20249;-79
2022/09/07 00:17:28;;;;;;;3.57;1.93;;;;;;;20.51;68.60;99250.38;4981882;28;20195;-79
2022/09/07 00:19:54;;;;;;;3.60;2.80;;;;;;;20.49;68.69;99249.72;4980211;28;20540;-79
2022/09/07 00:22:20;;;;;;;4.50;2.40;;;;;;;20.47;68.72;99251.75;4981105;28;20308;-79
2022/09/07 00:24:45;;;;;;;3.13;2.13;;;;;;;20.46;68.75;99247.41;4985534;28;20571;-79
2022/09/07 00:27:11;;;;;;;3.57;2.40;;;;;;;20.42;68.86;99245.25;4986603;28;20464;-80
2022/09/07 00:29:36;;;;;;;2.30;2.10;;;;;;;20.39;68.95;99246.44;4981999;28;20207;-80
2022/09/07 00:32:02;;;;;;;13.27;2.23;;;;;;;20.35;69.23;99242.41;4985867;28;20415;-79
2022/09/07 00:34:28;;;;;;;6.97;2.80;;;;;;;20.32;69.14;99242.75;4980663;28;20234;-79
2022/09/07 00:36:53;;;;;;;4.27;2.43;;;;;;;20.31;69.42;99243.78;4982842;28;20441;-79
2022/09/07 00:39:19;;;;;;;2.80;2.33;;;;;;;20.29;69.21;99243.09;4984180;28;20271;-80
2022/09/07 00:41:44;;;;;;;3.00;2.23;;;;;;;20.27;69.37;99243.25;4985196;28;20219;-79
2022/09/07 00:44:41;;;;;;;6.97;2.70;;;;;;;20.25;69.27;99242.63;4966754;28;20226;-79
2022/09/07 00:47:09;;;;;;;2.07;1.70;;;;;;;20.24;69.40;99254.28;4984378;28;20201;-79
2022/09/07 00:49:37;;;;;;;3.80;2.67;;;;;;;20.23;69.44;99247.28;4985071;28;21302;-80
2022/09/07 00:52:06;;;;;;;3.60;2.30;;;;;;;20.20;69.63;99249.44;4985095;28;20568;-80
2022/09/07 00:54:37;;;;;;;2.50;1.90;;;;;;;20.14;69.78;99248.28;4986414;28;20521;-79
2022/09/07 00:57:03;;;;;;;4.80;2.20;;;;;;;20.11;69.93;99244.09;4984475;28;20466;-80
2022/09/07 00:59:34;;;;;;;2.97;2.67;;;;;;;20.08;70.09;99259.63;4984999;28;20553;-80
2022/09/07 01:02:00;;;;;;;6.80;2.90;;;;;;;20.06;70.03;99248.28;4980364;28;20467;-79
2022/09/07 01:04:25;;;;;;;2.20;1.90;;;;;;;20.03;70.06;99245.94;4985075;28;20483;-79
2022/09/07 01:06:53;;;;;;;3.93;2.03;;;;;;;19.98;70.34;99246.47;4978478;28;20497;-80
2022/09/07 01:09:21;;;;;;;3.13;2.47;;;;;;;19.96;70.20;99239.63;4974838;28;20209;-80
2022/09/07 01:11:49;;;;;;;3.53;2.53;;;;;;;19.95;70.15;99236.13;4972915;28;20463;-79
2022/09/07 01:14:24;;;;;;;2.50;2.30;;;;;;;19.96;70.30;99247.63;4973922;28;21294;-79
2022/09/07 01:17:06;;;;;;;3.20;2.60;;;;;;;19.96;70.13;99253.78;4972191;28;20878;-80
2022/09/07 01:19:48;;;;;;;1.80;1.70;;;;;;;19.97;70.05;99257.28;4970222;28;21372;-80
2022/09/07 01:22:31;;;;;;;3.50;2.10;;;;;;;19.93;69.98;99255.94;4973944;28;20502;-79
2022/09/07 01:25:26;;;;;;;3.87;2.43;;;;;;;19.82;70.42;99263.28;4962816;28;20491;-79
2022/09/07 01:27:58;;;;;;;3.33;2.53;;;;;;;19.70;70.61;99264.59;4963360;28;20534;-79
2022/09/07 01:30:24;;;;;;;3.00;2.50;;;;;;;19.65;70.77;99258.91;4962118;28;20557;-80
2022/09/07 01:32:58;;;;;;;7.20;2.33;;;;;;;19.58;70.89;99265.91;4962593;28;20464;-80
2022/09/07 01:35:43;;;;;;;4.63;2.90;;;;;;;19.45;71.40;99266.34;4961155;28;20529;-79
2022/09/07 01:38:22;;;;;;;5.17;3.00;;;;;;;19.38;71.45;99268.81;4963781;28;21000;-80
2022/09/07 01:41:00;;;;;;;3.60;2.70;;;;;;;19.33;71.78;99275.63;4961356;28;20971;-80
2022/09/07 01:43:46;;;;;;;2.90;2.17;;;;;;;19.32;71.77;99272.16;4961503;28;20824;-79
2022/09/07 01:46:26;;;;;;;4.07;2.23;;;;;;;19.31;71.85;99270.50;4962176;28;21319;-80
2022/09/07 01:48:56;;;;;;;4.83;2.50;;;;;;;19.30;71.71;99268.81;4963113;28;21279;-79
2022/09/07 01:51:27;;;;;;;3.93;2.23;;;;;;;19.30;71.78;99266.13;4960647;28;20555;-80
2022/09/07 01:53:57;;;;;;;2.27;2.07;;;;;;;19.30;71.93;99273.31;4961521;28;20523;-81
2022/09/07 01:56:45;;;;;;;3.00;2.47;;;;;;;19.21;72.05;99267.94;4963941;28;20468;-79
2022/09/07 01:59:27;;;;;;;2.80;2.50;;;;;;;19.18;72.37;99278.09;4959373;28;20913;-80
2022/09/07 02:02:02;;;;;;;8.50;2.33;;;;;;;19.13;72.46;99283.91;4958846;28;20491;-80
2022/09/07 02:04:42;;;;;;;4.33;2.63;;;;;;;19.06;72.56;99282.84;4961729;28;20476;-80
2022/09/07 02:07:16;;;;;;;3.63;3.13;;;;;;;19.05;72.66;99278.53;4963931;28;21493;-79
2022/09/07 02:09:50;;;;;;;3.70;2.73;;;;;;;19.07;72.59;99276.56;4959969;28;20455;-79
2022/09/07 02:12:25;;;;;;;3.37;3.03;;;;;;;19.08;72.75;99274.72;4963024;28;20467;-80
2022/09/07 02:14:58;;;;;;;3.73;3.17;;;;;;;19.04;72.86;99262.72;4962309;28;20595;-79
2022/09/07 02:17:30;;;;;;;3.40;2.20;;;;;;;19.04;72.73;99262.72;4963573;28;20546;-80
2022/09/07 02:20:03;;;;;;;2.83;2.50;;;;;;;19.01;72.64;99270.03;4965451;28;20503;-80
2022/09/07 02:22:33;;;;;;;5.03;2.83;;;;;;;19.01;72.91;99266.56;4975429;28;20547;-79
2022/09/07 02:25:02;;;;;;;4.37;2.77;;;;;;;19.00;72.94;99262.22;4971024;28;20564;-80
2022/09/07 02:27:38;;;;;;;3.90;2.60;;;;;;;19.03;72.73;99272.53;4632599;28;10000537;-81
2022/09/07 02:30:04;;;;;;;4.40;2.40;;;;;;;19.05;72.77;99278.53;4976297;28;21165;-80
2022/09/07 02:32:29;;;;;;;4.77;2.23;;;;;;;19.03;73.15;99277.84;4975352;28;20464;-80
2022/09/07 02:34:55;;;;;;;6.87;2.47;;;;;;;18.99;73.11;99274.69;4957575;28;20471;-81
2022/09/07 02:37:21;;;;;;;4.80;2.60;;;;;;;18.97;72.94;99274.00;4977192;28;20212;-81
2022/09/07 02:39:48;;;;;;;3.57;2.60;;;;;;;18.97;73.05;99262.53;4975417;28;20501;-80
2022/09/07 02:42:13;;;;;;;4.30;1.97;;;;;;;19.01;73.03;99270.03;4977097;28;20464;-80
2022/09/07 02:44:40;;;;;;;2.30;2.10;;;;;;;19.03;73.04;99267.22;4974674;28;20546;-80
2022/09/07 02:47:26;;;;;;;6.23;2.60;;;;;;;19.07;72.73;99276.56;4972965;28;20205;-79
2022/09/07 02:49:56;;;;;;;5.33;3.13;;;;;;;19.08;72.69;99272.88;4974466;28;20447;-80
2022/09/07 02:52:36;;;;;;;4.33;2.83;;;;;;;19.09;72.56;99277.25;4976607;28;20553;-80
2022/09/07 02:55:39;;;;;;;2.77;2.57;;;;;;;19.04;72.72;99274.22;4975627;28;20521;-80
2022/09/07 02:58:44;;;;;;;5.97;2.40;;;;;;;18.95;72.79;99267.19;4977816;28;20582;-80
2022/09/07 03:01:22;;;;;;;2.40;2.00;;;;;;;18.91;72.92;99266.66;4973445;28;20471;-80
2022/09/07 03:04:05;;;;;;;4.33;2.20;;;;;;;18.92;72.80;99272.81;4976752;28;20456;-79
2022/09/07 03:06:46;;;;;;;4.13;2.20;;;;;;;18.94;72.69;99278.81;4976196;28;20446;-80
2022/09/07 03:09:18;;;;;;;6.43;2.10;;;;;;;18.96;72.54;99272.34;4973262;28;20459;-79
2022/09/07 03:11:44;;;;;;;3.93;2.77;;;;;;;18.95;72.73;99281.31;4976218;28;20559;-80
2022/09/07 03:14:12;;;;;;;4.60;3.23;;;;;;;18.95;72.67;99280.47;4977915;28;20562;-80
2022/09/07 03:16:37;;;;;;;3.97;2.10;;;;;;;18.95;72.43;99269.84;4973406;28;20460;-79
2022/09/07 03:19:03;;;;;;;6.03;2.50;;;;;;;18.93;72.55;99278.00;4977261;28;20995;-80
2022/09/07 03:21:30;;;;;;;4.03;3.07;;;;;;;18.90;72.71;99270.34;4977193;28;20261;-79
2022/09/07 03:23:55;;;;;;;4.40;3.20;;;;;;;18.86;72.91;99273.47;4971966;28;20438;-80
2022/09/07 03:26:24;;;;;;;3.07;2.77;;;;;;;18.82;73.12;99270.25;4974862;28;20462;-78
2022/09/07 03:28:50;;;;;;;5.53;3.03;;;;;;;18.81;72.89;99263.28;4970581;28;20269;-79
2022/09/07 03:31:16;;;;;;;6.80;2.77;;;;;;;18.74;73.36;99271.09;4976378;28;20460;-79
2022/09/07 03:33:41;;;;;;;4.33;2.93;;;;;;;18.66;73.30;99271.00;4975600;28;20462;-80
2022/09/07 03:36:07;;;;;;;4.00;2.80;;;;;;;18.63;73.84;99262.50;4976805;28;20294;-80
2022/09/07 03:38:32;;;;;;;5.40;3.33;;;;;;;18.57;73.66;99263.97;4975635;28;20261;-79
2022/09/07 03:41:03;;;;;;;13.13;4.77;;;;;;;18.54;74.16;99264.28;4974783;28;20666;-79
2022/09/07 03:43:30;;;;;;;4.90;3.27;;;;;;;18.52;74.00;99268.91;4975088;28;20277;-80
2022/09/07 03:45:57;;;;;;;6.87;3.33;;;;;;;18.54;74.12;99269.59;4974269;28;20586;-79
2022/09/07 03:48:22;;;;;;;6.00;2.80;;;;;;;18.53;74.01;99276.75;4974849;28;20514;-79
2022/09/07 03:50:55;;;;;;;3.90;3.60;;;;;;;18.54;74.07;99273.09;4975430;28;20466;-79
2022/09/07 03:53:21;;;;;;;3.40;2.80;;;;;;;18.57;73.80;99282.56;4971300;28;20208;-79
2022/09/07 03:56:01;;;;;;;5.50;2.97;;;;;;;18.62;73.98;99285.59;4973738;28;20490;-79
2022/09/07 03:58:31;;;;;;;5.53;3.73;;;;;;;18.64;74.04;99285.47;4973917;28;20228;-79
2022/09/07 04:00:59;;;;;;;4.20;3.07;;;;;;;18.62;73.88;99290.94;4973792;28;20466;-79
2022/09/07 04:03:25;;;;;;;5.73;4.43;;;;;;;18.59;73.72;99291.25;4972743;28;20963;-79
2022/09/07 04:05:50;;;;;;;4.37;3.23;;;;;;;18.58;73.76;99292.25;4971104;28;20491;-79
2022/09/07 04:08:16;;;;;;;3.90;2.23;;;;;;;18.58;73.91;99293.06;4968330;28;20984;-79
2022/09/07 04:10:41;;;;;;;3.63;2.20;;;;;;;18.57;73.67;99296.69;4972217;28;20238;-80
2022/09/07 04:13:07;;;;;;;3.43;2.37;;;;;;;18.57;73.63;99298.53;4971430;28;20207;-80
2022/09/07 04:15:34;;;;;;;4.17;2.47;;;;;;;18.57;73.72;99309.19;4971784;28;20239;-79
2022/09/07 04:18:00;;;;;;;5.07;2.63;;;;;;;18.56;73.68;99312.84;4970606;28;20557;-79
2022/09/07 04:20:25;;;;;;;4.07;3.77;;;;;;;18.51;73.71;99309.81;4972728;28;20522;-79
2022/09/07 04:22:50;;;;;;;4.20;3.03;;;;;;;18.50;73.73;99314.31;4972974;28;20478;-79
2022/09/07 04:25:16;;;;;;;3.27;2.27;;;;;;;18.48;73.70;99312.78;4974045;28;20713;-79
2022/09/07 04:27:42;;;;;;;4.40;2.57;;;;;;;18.47;73.88;99314.63;4973161;28;20204;-79
2022/09/07 04:30:08;;;;;;;5.60;2.30;;;;;;;18.48;73.87;99315.44;4974045;28;20462;-80
2022/09/07 04:32:33;;;;;;;2.37;2.13;;;;;;;18.50;73.81;99302.81;4972348;28;20203;-80
2022/09/07 04:34:59;;;;;;;6.20;3.03;;;;;;;18.52;73.37;99300.81;4972999;28;20470;-78
2022/09/07 04:37:24;;;;;;;3.97;2.97;;;;;;;18.53;73.64;99297.19;4973106;28;20776;-80
2022/09/07 04:39:50;;;;;;;4.27;3.37;;;;;;;18.54;73.67;99306.84;4972165;28;20218;-79
2022/09/07 04:42:17;;;;;;;2.83;2.63;;;;;;;18.57;73.52;99304.69;4986210;28;20336;-79
2022/09/07 04:44:42;;;;;;;2.60;2.23;;;;;;;18.61;73.31;99304.41;4995012;28;20513;-79
2022/09/07 04:47:07;;;;;;;6.33;4.40;;;;;;;18.60;73.41;99308.84;4995010;28;20501;-79
2022/09/07 04:49:33;;;;;;;4.70;2.57;;;;;;;18.57;73.34;99309.19;4996442;28;20202;-79
2022/09/07 04:51:59;;;;;;;4.27;2.57;;;;;;;18.53;73.19;99311.31;4994792;28;20668;-79
2022/09/07 04:54:25;;;;;;;7.03;3.80;;;;;;;18.55;73.55;99311.16;4997107;28;20471;-79
2022/09/07 04:56:51;;;;;;;2.70;2.50;;;;;;;18.57;73.11;99320.66;4995699;28;20560;-79
2022/09/07 04:59:16;;;;;;;3.90;2.70;;;;;;;18.60;73.40;99316.00;4998615;28;20543;-78
2022/09/07 05:01:41;;;;;;;3.97;3.10;;;;;;;18.61;73.08;99313.22;4998414;28;20587;-79
2022/09/07 05:04:07;;;;;;;4.80;3.70;;;;;;;18.65;73.48;99317.22;5000538;28;20559;-78
2022/09/07 05:06:32;;;;;;;6.60;3.20;;;;;;;18.66;73.66;99312.72;5002523;28;20842;-79
2022/09/07 05:08:58;;;;;;;4.60;2.50;;;;;;;18.65;73.52;99303.91;5002627;28;20203;-79
2022/09/07 05:11:24;;;;;;;4.13;2.70;;;;;;;18.64;73.37;99306.75;4999064;28;20215;-79
2022/09/07 05:13:50;;;;;;;4.03;3.07;;;;;;;18.63;73.36;99308.53;4997664;28;20459;-79
2022/09/07 05:16:18;;;;;;;4.23;3.33;;;;;;;18.65;73.35;99311.06;5000568;28;20481;-80
2022/09/07 05:18:48;;;;;;;3.30;2.83;;;;;;;18.64;73.10;99315.56;5001802;28;20440;-80
2022/09/07 05:21:15;;;;;;;3.03;2.70;;;;;;;18.64;73.05;99320.03;4999229;28;20454;-79
2022/09/07 05:23:41;;;;;;;5.10;3.77;;;;;;;18.66;73.10;99326.03;4999528;28;20464;-80
2022/09/07 05:26:07;;;;;;;4.23;3.30;;;;;;;18.64;73.23;99326.19;4999450;28;20462;-80
2022/09/07 05:28:34;;;;;;;2.83;2.50;;;;;;;18.61;73.08;99333.66;5001020;28;20491;-80
2022/09/07 05:31:08;;;;;;;2.77;2.57;;;;;;;18.54;72.91;99323.63;4999881;28;21046;-80
2022/09/07 05:33:34;;;;;;;3.53;2.57;;;;;;;18.53;72.89;99318.47;5003665;28;20833;-80
2022/09/07 05:36:00;;;;;;;5.13;2.50;;;;;;;18.53;73.16;99329.09;5001101;28;20485;-80
2022/09/07 05:38:26;;;;;;;3.20;2.37;;;;;;;18.55;73.04;99327.09;5002171;28;20226;-80
2022/09/07 05:40:51;;;;;;;4.90;3.07;;;;;;;18.56;73.01;99324.31;4999210;28;20472;-80
2022/09/07 05:43:17;;;;;;;3.87;2.63;;;;;;;18.58;72.81;99322.34;5003152;28;20888;-80
2022/09/07 05:45:42;;;;;;;7.73;3.47;;;;;;;18.62;72.65;99314.88;5003830;28;20234;-80
2022/09/07 05:48:07;;;;;;;4.30;3.20;;;;;;;18.63;73.37;99308.53;5004013;28;20199;-80
2022/09/07 05:50:34;;;;;;;6.10;3.60;;;;;;;18.68;73.18;99308.91;5001965;28;20198;-80
2022/09/07 05:52:59;;;;;;;5.23;2.70;;;;;;;18.77;72.80;99313.34;4999307;28;20677;-80
2022/09/07 05:55:25;;;;;;;4.80;4.30;;;;;;;18.93;72.65;99315.25;5003676;28;20476;-80
2022/09/07 05:57:50;;;;;;;3.10;2.80;;;;;;;19.38;72.14;99311.44;5002915;28;20228;-80
2022/09/07 06:00:16;;;;;;;4.00;3.10;;;;;;;20.08;69.98;99311.09;5004049;28;20235;-81
2022/09/07 06:02:41;;;;;;;5.17;4.30;;;;;;;20.75;68.36;99312.75;5003842;28;20738;-81
2022/09/07 06:05:07;;;;;;;3.60;2.57;;;;;;;21.15;66.87;99302.97;5003444;28;20219;-80
2022/09/07 06:07:33;;;;;;;8.50;4.20;;;;;;;21.29;66.25;99307.56;4993710;28;20407;-80
2022/09/07 06:09:58;;;;;;;4.07;2.40;;;;;;;21.19;66.38;99322.97;4993780;28;21114;-80
2022/09/07 06:12:24;;;;;;;7.20;2.70;;;;;;;21.03;66.63;99323.03;4993288;28;20216;-81
2022/09/07 06:14:49;;;;;;;5.43;3.20;;;;;;;20.95;66.93;99334.56;4992915;28;20246;-80
2022/09/07 06:17:14;;;;;;;4.53;3.10;;;;;;;21.05;66.82;99339.72;4993993;28;20250;-80
2022/09/07 06:19:40;;;;;;;6.30;2.47;;;;;;;21.42;65.88;99331.91;4994936;28;20782;-80
2022/09/07 06:22:05;;;;;;;7.43;2.37;;;;;;;21.89;64.43;99330.16;4991514;28;20238;-81
2022/09/07 06:24:31;;;;;;;3.07;2.57;;;;;;;22.15;63.49;99332.47;4992165;28;20222;-81
2022/09/07 06:26:56;;;;;;;4.50;2.30;;;;;;;22.14;63.36;99341.50;4992258;28;20238;-80
2022/09/07 06:29:21;;;;;;;5.20;2.40;;;;;;;22.02;63.74;99342.94;4994953;28;20197;-80
2022/09/07 06:31:47;;;;;;;4.80;3.17;;;;;;;21.91;64.31;99346.84;4994853;28;21335;-79
2022/09/07 06:34:12;;;;;;;4.17;3.20;;;;;;;21.79;64.81;99351.78;4995316;28;21019;-79
2022/09/07 06:36:37;;;;;;;5.23;2.60;;;;;;;21.72;65.10;99364.19;4996455;28;20208;-80
2022/09/07 06:39:03;;;;;;;9.00;2.97;;;;;;;21.70;65.35;99352.00;4996003;28;20352;-79
2022/09/07 06:41:29;;;;;;;4.90;3.17;;;;;;;21.71;65.28;99357.19;4995299;28;20218;-80
2022/09/07 06:43:56;;;;;;;4.13;2.40;;;;;;;21.75;65.50;99363.00;4996239;28;20225;-79
2022/09/07 06:46:22;;;;;;;3.50;3.20;;;;;;;21.81;65.60;99362.28;4994705;28;20511;-79
2022/09/07 06:48:52;;;;;;;6.93;3.43;;;;;;;21.91;65.69;99362.06;4996105;28;20493;-80
2022/09/07 06:51:19;;;;;;;5.37;2.90;;;;;;;22.06;65.31;99346.91;4996016;28;20457;-80
2022/09/07 06:53:46;;;;;;;5.03;3.10;;;;;;;22.25;64.88;99354.50;4995113;28;20516;-79
2022/09/07 06:56:15;;;;;;;5.20;3.70;;;;;;;22.44;64.73;99352.31;4995276;28;20461;-80
2022/09/07 06:58:41;;;;;;;7.67;3.40;;;;;;;22.60;63.96;99360.25;4995496;28;21110;-82
2022/09/07 07:01:13;;;;;;;4.90;2.40;;;;;;;22.79;63.52;99366.94;4994939;28;20596;-79
2022/09/07 07:03:39;;;;;;;4.07;3.17;;;;;;;22.96;63.25;99354.22;4994699;28;20470;-80
2022/09/07 07:06:05;;;;;;;9.13;3.50;;;;;;;23.09;62.76;99357.09;4995838;28;20571;-80
2022/09/07 07:08:31;;;;;;;6.33;3.60;;;;;;;23.21;62.34;99362.00;4991341;28;20236;-80
2022/09/07 07:11:07;;;;;;;3.00;2.30;;;;;;;23.31;61.71;99358.00;4991003;28;20961;-82
2022/09/07 07:13:33;;;;;;;3.27;2.97;;;;;;;23.42;61.03;99354.03;4992753;28;20460;-79
2022/09/07 07:16:10;;;;;;;5.20;2.93;;;;;;;23.47;60.86;99343.59;5028981;23;21282;-80
2022/09/07 07:18:36;;;;;;;5.80;2.90;;;;;;;23.55;60.56;99346.16;4995378;28;20549;-79
2022/09/07 07:21:03;;;;;;;6.30;2.50;;;;;;;23.61;60.43;99342.72;5006520;28;20461;-80
2022/09/07 07:23:28;;;;;;;7.53;2.70;;;;;;;23.70;60.16;99347.97;5015366;28;20200;-80
2022/09/07 07:25:54;;;;;;;5.67;2.80;;;;;;;23.78;59.56;99350.56;5015011;28;20474;-76
2022/09/07 07:28:22;;;;;;;3.93;2.50;;;;;;;23.86;59.36;99347.75;5016789;28;20613;-76
2022/09/07 07:30:54;;;;;;;5.20;2.30;;;;;;;24.13;58.84;99345.34;5009747;28;20502;-78
2022/09/07 07:33:20;;;;;;;4.70;3.03;;;;;;;24.79;57.26;99342.41;5007155;28;21056;-80
2022/09/07 07:35:45;;;;;;;5.83;2.30;;;;;;;25.65;54.73;99348.25;5007789;28;20525;-81
2022/09/07 07:38:10;;;;;;;6.50;3.17;;;;;;;26.49;52.33;99350.53;5009937;28;20181;-77
2022/09/07 07:40:36;;;;;;;3.00;2.40;;;;;;;27.27;50.36;99346.31;5009753;28;20201;-80
2022/09/07 07:43:01;;;;;;;4.77;2.33;;;;;;;27.91;48.61;99355.41;5007399;28;20243;-76
2022/09/07 07:45:27;;;;;;;5.10;2.50;;;;;;;28.28;47.30;99352.88;5008523;28;20562;-76
2022/09/07 07:47:52;;;;;;;3.73;2.13;;;;;;;28.37;46.83;99352.38;5006864;28;20196;-78
2022/09/07 07:50:18;;;;;;;3.80;2.40;;;;;;;28.41;46.69;99347.38;5010681;28;20255;-77
2022/09/07 07:52:43;;;;;;;4.13;2.23;;;;;;;28.52;46.21;99359.38;5008728;28;20178;-78
2022/09/07 07:55:09;;;;;;;5.77;2.37;;;;;;;28.74;45.30;99349.81;5007758;28;20697;-78
2022/09/07 07:57:34;;;;;;;2.73;2.30;;;;;;;29.25;44.38;99345.19;5011316;28;20655;-77
2022/09/07 08:00:00;;;;;;;4.77;2.30;;;;;;;29.84;43.13;99340.06;5008070;28;20199;-80
2022/09/07 08:02:29;;;;;;;5.50;1.90;;;;;;;30.26;41.83;99340.09;5011458;28;21017;-78
2022/09/07 08:04:54;;;;;;;4.40;2.23;;;;;;;30.60;40.99;99343.94;5008802;28;21019;-80
2022/09/07 08:07:20;;;;;;;4.43;2.33;;;;;;;30.95;40.26;99341.25;5011405;28;20198;-81
2022/09/07 08:09:47;;;;;;;6.57;2.03;;;;;;;31.07;39.92;99336.63;5008286;28;20175;-80
2022/09/07 08:12:15;;;;;;;4.33;2.53;;;;;;;31.07;39.13;99338.50;5010317;28;20447;-81
2022/09/07 08:14:41;;;;;;;4.33;2.57;;;;;;;31.35;38.73;99332.31;5011180;28;20445;-81
2022/09/07 08:17:09;;;;;;;3.47;2.60;;;;;;;31.60;38.19;99339.38;5007801;28;20495;-78
2022/09/07 08:19:35;;;;;;;2.03;1.77;;;;;;;31.77;37.66;99344.84;5010943;28;20500;-81
2022/09/07 08:22:00;;;;;;;2.20;2.00;;;;;;;31.67;37.27;99343.56;5009290;28;20592;-79
2022/09/07 08:24:26;;;;;;;2.50;2.10;;;;;;;31.45;38.12;99343.41;5011632;28;20670;-76
2022/09/07 08:26:51;;;;;;;9.13;2.33;;;;;;;31.40;38.24;99334.34;5009745;28;20204;-79
2022/09/07 08:29:17;;;;;;;3.47;2.27;;;;;;;31.55;38.05;99340.09;5007277;28;20183;-80
2022/09/07 08:31:43;;;;;;;3.70;2.10;;;;;;;31.49;37.62;99333.72;5011746;28;20190;-80
2022/09/07 08:34:09;;;;;;;4.63;1.97;;;;;;;31.31;37.79;99340.13;5011118;28;20253;-82
2022/09/07 08:36:34;;;;;;;2.50;1.63;;;;;;;31.20;38.30;99353.72;5008988;28;21268;-78
2022/09/07 08:39:00;;;;;;;2.43;1.93;;;;;;;31.34;38.08;99344.25;5006573;28;20271;-77
2022/09/07 08:41:42;;;;;;;3.60;1.93;;;;;;;31.35;38.33;99356.72;5010866;28;21115;-78
2022/09/07 08:44:18;;;;;;;3.20;2.20;;;;;;;31.51;37.85;99344.34;5013601;28;20677;-78
2022/09/07 08:46:54;;;;;;;3.10;2.40;;;;;;;31.74;37.42;99343.44;5010161;28;20552;-79
2022/09/07 08:49:49;;;;;;;2.13;1.70;;;;;;;31.76;37.30;99341.31;5007167;28;20941;-81
2022/09/07 08:52:35;;;;;;;2.43;2.23;;;;;;;31.68;36.92;99341.69;5010179;28;20445;-81
2022/09/07 08:55:10;;;;;;;8.27;3.33;;;;;;;31.56;37.10;99344.44;5010688;28;21069;-78
2022/09/07 08:57:40;;;;;;;4.17;1.77;;;;;;;31.47;37.65;99349.44;5013924;28;20445;-82
2022/09/07 09:00:12;;;;;;;3.20;2.50;;;;;;;31.28;37.46;99347.91;5013919;28;20912;-78
2022/09/07 09:02:38;;;;;;;4.73;2.50;;;;;;;31.18;37.92;99339.56;5009450;28;20440;-76
2022/09/07 09:05:13;;;;;;;2.50;2.30;;;;;;;30.98;38.00;99338.06;5010482;28;21163;-81
2022/09/07 09:08:03;;;;;;;1.80;1.70;;;;;;;30.68;39.18;99329.19;5011743;28;20197;-80
2022/09/07 09:10:39;;;;;;;6.83;2.23;;;;;;;30.47;39.52;99326.00;5010792;28;22218;-80
2022/09/07 09:13:13;;;;;;;6.60;2.97;;;;;;;30.41;40.04;99325.06;5013929;28;21264;-80
2022/09/07 09:15:41;;;;;;;2.60;1.80;;;;;;;30.30;39.59;99333.16;5011937;28;20467;-78
2022/09/07 09:18:22;;;;;;;4.77;2.57;;;;;;;30.19;40.06;99332.03;5013127;28;20445;-80
2022/09/07 09:20:50;;;;;;;5.07;2.07;;;;;;;30.12;40.35;99332.16;5010308;28;20452;-80
2022/09/07 09:23:19;;;;;;;1.93;1.70;;;;;;;30.11;40.14;99324.25;5009622;28;20457;-78
2022/09/07 09:25:49;;;;;;;3.83;2.20;;;;;;;29.98;39.82;99325.28;5010361;28;20540;-80
2022/09/07 09:28:15;;;;;;;4.03;1.93;;;;;;;29.77;40.02;99326.63;5011686;28;21335;-79
2022/09/07 09:30:40;;;;;;;2.43;1.83;;;;;;;29.74;39.89;99329.81;5007807;28;21031;-79
2022/09/07 09:33:18;;;;;;;3.08;2.20;;;;;;;29.85;40.31;99326.31;5009668;28;20485;-81
2022/09/07 09:35:49;;;;;;;2.33;1.90;;;;;;;29.99;40.02;99327.75;5010157;28;20214;-80
2022/09/07 09:38:38;;;;;;;4.17;2.10;;;;;;;29.98;40.00;99333.41;5005932;28;20449;-75
2022/09/07 09:41:14;;;;;;;7.13;3.03;;;;;;;29.92;40.26;99320.78;5008140;28;20449;-80
2022/09/07 09:43:46;;;;;;;9.33;2.50;;;;;;;29.92;40.25;99328.91;5011096;28;20452;-80
2022/09/07 09:46:19;;;;;;;3.70;2.33;;;;;;;29.94;39.71;99319.50;5014904;28;20463;-78
2022/09/07 09:49:10;;;;;;;2.23;1.80;;;;;;;29.93;39.82;99317.84;5016494;28;20448;-79
2022/09/07 09:51:43;;;;;;;2.07;1.87;;;;;;;30.06;39.56;99316.84;5013149;28;20461;-77
2022/09/07 09:54:32;;;;;;;7.90;3.27;;;;;;;30.06;39.28;99313.31;5016287;28;20456;-80
2022/09/07 09:56:58;;;;;;;3.77;2.50;;;;;;;29.87;39.50;99313.38;5017765;28;20457;-78
2022/09/07 09:59:27;;;;;;;2.70;1.77;;;;;;;29.88;40.00;99315.00;5016500;28;20472;-78
2022/09/07 10:01:53;;;;;;;6.17;2.00;;;;;;;30.04;38.99;99307.28;5014172;28;20237;-79
2022/09/07 10:04:32;;;;;;;1.80;1.70;;;;;;;30.13;38.81;99308.59;5014385;28;20437;-78
2022/09/07 10:07:04;;;;;;;3.10;2.20;;;;;;;30.15;38.96;99301.88;5008768;28;20206;-80
2022/09/07 10:09:35;;;;;;;3.53;1.90;;;;;;;30.17;38.69;99302.50;5009535;28;20426;-76
2022/09/07 10:12:02;;;;;;;5.67;1.70;;;;;;;30.25;38.87;99297.84;5009075;28;20486;-79
2022/09/07 10:14:32;;;;;;;2.73;1.90;;;;;;;30.34;38.22;99288.28;5015345;28;20532;-79
2022/09/07 10:16:58;;;;;;;7.03;2.07;;;;;;;30.33;38.40;99292.06;5012728;28;20460;-76
2022/09/07 10:19:35;;;;;;;4.17;1.80;;;;;;;30.40;38.27;99281.91;5012800;28;20921;-76
2022/09/07 10:22:03;;;;;;;2.90;2.30;;;;;;;30.35;37.78;99276.38;5012456;28;20456;-79
2022/09/07 10:24:37;;;;;;;2.40;1.80;;;;;;;30.12;38.08;99271.75;5013632;28;20460;-79
2022/09/07 10:27:19;;;;;;;16.57;2.83;;;;;;;29.96;38.27;99267.81;5011831;28;20823;-77
2022/09/07 10:29:45;;;;;;;3.00;1.70;;;;;;;29.80;37.88;99268.50;5013240;28;20433;-81
2022/09/07 10:32:22;;;;;;;3.70;2.27;;;;;;;29.80;37.58;99258.47;5014269;28;20608;-75
2022/09/07 10:35:12;;;;;;;3.20;1.93;;;;;;;29.97;37.77;99245.09;5016114;28;20224;-76
2022/09/07 10:37:58;;;;;;;2.70;2.03;;;;;;;30.06;37.33;99237.47;5015694;28;20440;-78
2022/09/07 10:40:37;;;;;;;2.53;1.90;;;;;;;30.16;37.68;99226.84;5030583;28;20461;-78
2022/09/07 10:43:06;;;;;;;2.20;1.70;;;;;;;30.38;37.63;99230.69;5014433;28;20460;-79
2022/09/07 10:46:03;;;;;;;3.63;2.17;;;;;;;30.62;37.08;99231.50;5016083;28;20465;-80
2022/09/07 10:48:49;;;;;;;2.07;1.87;;;;;;;30.79;36.18;99225.34;5007905;28;20449;-76
2022/09/07 10:51:17;;;;;;;2.97;2.50;;;;;;;30.72;36.67;99228.16;5015626;28;20433;-77
2022/09/07 10:53:54;;;;;;;2.27;1.40;;;;;;;30.52;35.70;99227.72;5015752;28;20472;-80
2022/09/07 10:56:34;;;;;;;3.73;2.53;;;;;;;30.54;35.74;99222.88;5015014;28;20997;-78
2022/09/07 10:59:04;;;;;;;2.43;1.60;;;;;;;30.63;34.59;99229.59;5015868;28;21642;-79
2022/09/07 11:01:45;;;;;;;3.30;1.73;;;;;;;30.72;34.30;99221.91;5014636;28;20432;-80
2022/09/07 11:04:38;;;;;;;2.10;1.87;;;;;;;30.91;34.32;99234.28;5014827;28;20438;-79
2022/09/07 11:07:24;;;;;;;4.10;1.57;;;;;;;31.12;33.71;99226.56;5015697;28;20457;-77
2022/09/07 11:10:03;;;;;;;3.13;1.80;;;;;;;31.22;33.78;99222.16;5013314;28;20436;-81
2022/09/07 11:12:36;;;;;;;2.73;1.53;;;;;;;31.11;34.07;99220.31;5015103;28;20447;-82
2022/09/07 11:15:10;;;;;;;2.87;1.57;;;;;;;31.12;34.26;99221.97;5015510;28;20810;-79
2022/09/07 11:17:44;;;;;;;1.97;1.67;;;;;;;31.14;34.52;99225.28;5014157;28;20447;-82
2022/09/07 11:20:31;;;;;;;3.10;1.97;;;;;;;31.05;34.71;99213.94;5011780;28;20484;-78
2022/09/07 11:23:14;;;;;;;2.47;1.80;;;;;;;31.11;34.95;99209.47;5015126;28;20607;-82
2022/09/07 11:26:02;;;;;;;4.23;2.00;;;;;;;31.07;34.50;99209.13;5013272;28;20460;-79
2022/09/07 11:28:40;;;;;;;2.87;2.17;;;;;;;30.97;34.50;99208.91;5011623;28;20564;-77
2022/09/07 11:31:16;;;;;;;6.40;2.00;;;;;;;30.98;34.83;99199.72;5012793;28;20432;-77
2022/09/07 11:34:02;;;;;;;3.77;1.77;;;;;;;31.04;34.66;99197.94;5012305;28;20477;-80
2022/09/07 11:36:34;;;;;;;2.10;1.47;;;;;;;31.00;34.58;99192.19;5013772;28;20553;-77
2022/09/07 11:39:06;;;;;;;2.17;1.93;;;;;;;30.99;34.92;99201.34;5010442;28;20467;-77
2022/09/07 11:41:47;;;;;;;4.33;2.33;;;;;;;30.83;34.58;99196.69;5012838;28;20437;-79
2022/09/07 11:44:25;;;;;;;2.17;1.87;;;;;;;30.71;34.98;99193.16;5010592;28;20520;-78
2022/09/07 11:46:56;;;;;;;3.57;3.00;;;;;;;30.60;35.04;99192.13;5009733;28;20559;-81
2022/09/07 11:49:24;;;;;;;2.03;1.73;;;;;;;30.60;35.05;99182.09;5013629;28;20663;-77